createdAt,value
2023-06-10T00:01:39.432Z,23.59
2023-06-10T00:04:06.596Z,23.60
2023-06-10T00:06:40.721Z,23.60
2023-06-10T00:09:11.970Z,23.58
2023-06-10T00:11:38.692Z,23.54
2023-06-10T00:14:05.467Z,23.52
2023-06-10T00:16:32.192Z,23.50
2023-06-10T00:19:02.146Z,23.48
2023-06-10T00:21:29.351Z,23.48
2023-06-10T00:23:56.896Z,23.49
2023-06-10T00:26:24.148Z,23.47
2023-06-10T00:28:51.099Z,23.44
2023-06-10T00:31:18.607Z,23.37
2023-06-10T00:33:45.486Z,23.29
2023-06-10T00:36:12.373Z,23.21
2023-06-10T00:38:39.157Z,23.12
2023-06-10T00:41:05.963Z,23.06
2023-06-10T00:43:32.710Z,23.04
2023-06-10T00:45:59.593Z,23.05
2023-06-10T00:48:26.478Z,23.05
2023-06-10T00:50:53.350Z,23.03
2023-06-10T00:53:21.898Z,22.98
2023-06-10T00:55:49.237Z,22.96
2023-06-10T00:58:16.724Z,22.98
2023-06-10T01:00:43.558Z,23.01
2023-06-10T01:03:10.286Z,23.02
2023-06-10T01:05:37.885Z,23.02
2023-06-10T01:08:25.149Z,23.01
2023-06-10T01:10:54.742Z,22.97
2023-06-10T01:13:24.969Z,22.92
2023-06-10T01:15:52.699Z,22.88
2023-06-10T01:18:19.560Z,22.87
2023-06-10T01:20:47.582Z,22.84
2023-06-10T01:23:14.227Z,22.85
2023-06-10T01:25:43.659Z,22.84
2023-06-10T01:28:28.638Z,22.80
2023-06-10T01:31:17.254Z,22.79
2023-06-10T01:33:47.255Z,22.78
2023-06-10T01:36:16.761Z,22.84
2023-06-10T01:38:44.598Z,22.89
2023-06-10T01:41:15.445Z,22.94
2023-06-10T01:43:44.596Z,22.94
2023-06-10T01:46:11.711Z,22.90
2023-06-10T01:48:40.343Z,22.87
2023-06-10T01:51:07.386Z,22.85
2023-06-10T01:53:36.684Z,22.79
2023-06-10T01:56:03.418Z,22.73
2023-06-10T01:58:30.113Z,22.68
2023-06-10T02:00:56.983Z,22.59
2023-06-10T02:03:23.890Z,22.52
2023-06-10T02:05:50.687Z,22.46
2023-06-10T02:08:17.348Z,22.42
2023-06-10T02:10:44.144Z,22.42
2023-06-10T02:13:11.086Z,22.39
2023-06-10T02:15:37.754Z,22.35
2023-06-10T02:18:04.642Z,22.33
2023-06-10T02:20:31.307Z,22.29
2023-06-10T02:22:58.478Z,22.28
2023-06-10T02:25:25.193Z,22.25
2023-06-10T02:27:51.970Z,22.26
2023-06-10T02:30:18.717Z,22.22
2023-06-10T02:32:49.067Z,22.16
2023-06-10T02:35:18.350Z,22.12
2023-06-10T02:37:45.391Z,22.08
2023-06-10T02:40:12.674Z,22.07
2023-06-10T02:42:39.774Z,22.05
2023-06-10T02:45:07.336Z,22.05
2023-06-10T02:47:40.267Z,22.03
2023-06-10T02:50:08.004Z,21.98
2023-06-10T02:52:40.274Z,21.92
2023-06-10T02:55:08.102Z,21.83
2023-06-10T02:57:35.067Z,21.73
2023-06-10T03:00:05.714Z,21.64
2023-06-10T03:02:32.842Z,21.61
2023-06-10T03:04:59.476Z,21.58
2023-06-10T03:07:27.188Z,21.56
2023-06-10T03:09:54.450Z,21.55
2023-06-10T03:12:21.165Z,21.53
2023-06-10T03:14:49.064Z,21.50
2023-06-10T03:17:16.891Z,21.47
2023-06-10T03:19:44.976Z,21.44
2023-06-10T03:22:12.530Z,21.42
2023-06-10T03:24:44.939Z,21.40
2023-06-10T03:27:12.142Z,21.38
2023-06-10T03:29:41.004Z,21.35
2023-06-10T03:32:08.294Z,21.32
2023-06-10T03:34:36.645Z,21.29
2023-06-10T03:37:04.193Z,21.24
2023-06-10T03:39:31.423Z,21.22
2023-06-10T03:42:00.035Z,21.22
2023-06-10T03:44:28.985Z,21.22
2023-06-10T03:46:56.294Z,21.18
2023-06-10T03:49:26.827Z,21.18
2023-06-10T03:51:55.569Z,21.21
2023-06-10T03:54:23.207Z,21.20
2023-06-10T03:56:49.844Z,21.31
2023-06-10T03:59:16.478Z,21.61
2023-06-10T04:01:44.874Z,21.96
2023-06-10T04:04:13.319Z,22.36
2023-06-10T04:06:39.970Z,22.66
2023-06-10T04:09:06.728Z,22.77
2023-06-10T04:11:33.872Z,22.49
2023-06-10T04:14:00.616Z,22.08
2023-06-10T04:16:27.228Z,21.79
2023-06-10T04:18:54.215Z,21.60
2023-06-10T04:21:23.035Z,21.52
2023-06-10T04:23:50.580Z,21.46
2023-06-10T04:26:17.304Z,21.39
2023-06-10T04:28:44.573Z,21.35
2023-06-10T04:31:11.258Z,21.33
2023-06-10T04:33:38.974Z,21.34
2023-06-10T04:36:07.846Z,21.34
2023-06-10T04:38:35.906Z,21.33
2023-06-10T04:41:03.365Z,21.35
2023-06-10T04:43:33.451Z,21.37
2023-06-10T04:46:01.682Z,21.39
2023-06-10T04:48:29.550Z,21.39
2023-06-10T04:50:57.289Z,21.40
2023-06-10T04:53:24.260Z,21.41
2023-06-10T04:55:51.079Z,21.42
2023-06-10T04:58:17.709Z,21.41
2023-06-10T05:00:44.900Z,21.42
2023-06-10T05:03:11.814Z,21.44
2023-06-10T05:05:38.575Z,21.47
2023-06-10T05:08:08.395Z,21.47
2023-06-10T05:10:36.208Z,21.45
2023-06-10T05:13:04.314Z,21.50
2023-06-10T05:15:32.053Z,21.55
2023-06-10T05:17:59.667Z,21.57
2023-06-10T05:20:27.050Z,21.58
2023-06-10T05:22:54.042Z,21.58
2023-06-10T05:25:20.733Z,21.60
2023-06-10T05:27:47.408Z,21.57
2023-06-10T05:30:14.108Z,21.57
2023-06-10T05:32:40.775Z,21.59
2023-06-10T05:35:08.104Z,21.60
2023-06-10T05:37:35.675Z,21.62
2023-06-10T05:40:02.297Z,21.62
2023-06-10T05:42:29.397Z,21.64
2023-06-10T05:44:56.038Z,21.65
2023-06-10T05:47:22.770Z,21.69
2023-06-10T05:49:51.043Z,21.78
2023-06-10T05:52:17.637Z,21.81
2023-06-10T05:54:44.301Z,21.83
2023-06-10T05:57:11.429Z,21.86
2023-06-10T05:59:38.060Z,21.92
2023-06-10T06:02:05.058Z,21.99
2023-06-10T06:04:32.073Z,22.13
2023-06-10T06:06:58.707Z,22.28
2023-06-10T06:09:25.557Z,22.45
2023-06-10T06:11:52.302Z,22.63
2023-06-10T06:14:19.012Z,22.69
2023-06-10T06:16:45.716Z,22.67
2023-06-10T06:19:12.385Z,22.67
2023-06-10T06:21:39.050Z,22.70
2023-06-10T06:24:06.001Z,22.77
2023-06-10T06:26:32.719Z,22.83
2023-06-10T06:28:59.612Z,22.92
2023-06-10T06:31:26.469Z,23.01
2023-06-10T06:33:53.242Z,23.16
2023-06-10T06:36:20.058Z,23.28
2023-06-10T06:38:46.732Z,23.38
2023-06-10T06:41:13.674Z,23.44
2023-06-10T06:43:40.411Z,23.49
2023-06-10T06:46:18.129Z,23.54
2023-06-10T06:48:45.435Z,23.60
2023-06-10T06:51:12.181Z,23.66
2023-06-10T06:53:45.452Z,23.73
2023-06-10T06:56:12.763Z,23.82
2023-06-10T06:58:39.896Z,23.89
2023-06-10T07:01:06.579Z,23.95
2023-06-10T07:03:33.270Z,24.04
2023-06-10T07:05:59.897Z,24.11
2023-06-10T07:08:26.560Z,24.24
2023-06-10T07:10:53.234Z,24.30
2023-06-10T07:13:19.915Z,24.44
2023-06-10T07:15:46.586Z,24.64
2023-06-10T07:18:13.236Z,24.74
2023-06-10T07:20:39.879Z,24.86
2023-06-10T07:23:06.439Z,25.21
2023-06-10T07:25:33.102Z,26.04
2023-06-10T07:28:00.191Z,26.23
2023-06-10T07:30:26.934Z,27.51
2023-06-10T07:32:53.621Z,28.77
2023-06-10T07:35:20.531Z,28.74
2023-06-10T07:37:47.171Z,29.07
2023-06-10T07:40:13.972Z,28.98
2023-06-10T07:42:40.939Z,28.58
2023-06-10T07:45:08.380Z,28.22
2023-06-10T07:47:35.673Z,27.88
2023-06-10T07:50:02.411Z,27.80
2023-06-10T07:52:29.916Z,28.11
2023-06-10T07:54:56.573Z,28.56
2023-06-10T07:57:23.269Z,28.05
2023-06-10T07:59:50.063Z,27.60
2023-06-10T08:02:16.917Z,27.57
2023-06-10T08:04:43.685Z,27.63
2023-06-10T08:07:10.338Z,27.99
2023-06-10T08:09:37.050Z,28.21
2023-06-10T08:12:03.894Z,28.07
2023-06-10T08:14:31.137Z,27.85
2023-06-10T08:16:57.964Z,27.66
2023-06-10T08:19:24.616Z,27.61
2023-06-10T08:21:51.200Z,27.91
2023-06-10T08:24:19.934Z,29.49
2023-06-10T08:26:46.713Z,33.96
2023-06-10T08:29:14.016Z,38.42
2023-06-10T08:31:42.590Z,42.14
2023-06-10T08:34:10.002Z,44.61
2023-06-10T08:36:36.835Z,46.68
2023-06-10T08:39:03.600Z,48.28
2023-06-10T08:41:31.829Z,49.45
2023-06-10T08:44:09.630Z,50.48
2023-06-10T08:46:37.424Z,51.25
2023-06-10T08:49:06.783Z,52.12
2023-06-10T08:51:33.594Z,52.78
2023-06-10T08:54:05.101Z,52.98
2023-06-10T08:56:33.120Z,53.44
2023-06-10T08:59:00.368Z,53.73
2023-06-10T09:01:27.181Z,54.13
2023-06-10T09:03:54.259Z,54.42
2023-06-10T09:06:21.188Z,54.84
2023-06-10T09:08:48.701Z,55.04
2023-06-10T09:11:15.376Z,55.57
2023-06-10T09:13:42.064Z,55.83
2023-06-10T09:16:08.827Z,56.23
2023-06-10T09:18:35.950Z,56.06
2023-06-10T09:21:02.654Z,56.53
2023-06-10T09:23:29.504Z,56.90
2023-06-10T09:25:59.760Z,54.25
2023-06-10T09:28:26.826Z,53.41
2023-06-10T09:31:13.053Z,52.49
2023-06-10T09:33:43.188Z,51.01
2023-06-10T09:36:10.164Z,48.11
2023-06-10T09:38:37.024Z,47.42
2023-06-10T09:41:03.948Z,48.26
2023-06-10T09:43:42.999Z,45.44
2023-06-10T09:46:16.398Z,44.07
2023-06-10T09:48:44.779Z,42.05
2023-06-10T09:51:12.053Z,43.09
2023-06-10T09:53:38.770Z,44.89
2023-06-10T09:56:06.536Z,44.65
2023-06-10T09:58:44.456Z,46.91
2023-06-10T10:01:12.986Z,50.69
2023-06-10T10:03:47.427Z,52.47
2023-06-10T10:06:14.588Z,49.64
2023-06-10T10:08:41.267Z,46.91
2023-06-10T10:11:08.162Z,47.70
2023-06-10T10:13:35.833Z,51.04
2023-06-10T10:16:10.351Z,51.12
2023-06-10T10:18:39.914Z,53.23
2023-06-10T10:21:12.313Z,55.16
2023-06-10T10:24:02.088Z,57.17
2023-06-10T10:26:29.077Z,58.77
2023-06-10T10:29:14.180Z,59.56
2023-06-10T10:31:43.329Z,59.47
2023-06-10T10:34:13.380Z,58.23
2023-06-10T10:36:40.084Z,57.76
2023-06-10T10:39:07.037Z,58.99
2023-06-10T10:41:34.003Z,59.59
2023-06-10T10:44:01.981Z,59.81
2023-06-10T10:46:28.631Z,59.57
2023-06-10T10:48:58.485Z,59.88
2023-06-10T10:51:28.532Z,60.69
2023-06-10T10:54:11.268Z,60.90
2023-06-10T10:56:37.906Z,60.97
2023-06-10T10:59:08.183Z,59.61
2023-06-10T11:01:42.141Z,60.45
2023-06-10T11:04:10.736Z,61.52
2023-06-10T11:06:37.599Z,62.00
2023-06-10T11:09:24.519Z,61.53
2023-06-10T11:11:51.435Z,55.91
2023-06-10T11:14:27.272Z,55.23
2023-06-10T11:16:57.185Z,55.17
2023-06-10T11:19:37.654Z,56.09
2023-06-10T11:22:08.908Z,55.23
2023-06-10T11:24:35.811Z,54.38
2023-06-10T11:27:25.544Z,55.98
2023-06-10T11:29:57.702Z,56.90
2023-06-10T11:32:32.492Z,55.31
2023-06-10T11:34:59.517Z,55.41
2023-06-10T11:37:26.530Z,55.66
2023-06-10T11:39:56.636Z,55.76
2023-06-10T11:42:24.024Z,55.99
2023-06-10T11:44:52.110Z,55.78
2023-06-10T11:47:23.199Z,55.67
2023-06-10T11:49:57.988Z,55.91
2023-06-10T11:52:33.487Z,55.57
2023-06-10T11:55:02.977Z,55.11
2023-06-10T11:57:29.719Z,51.29
2023-06-10T11:59:56.337Z,48.53
2023-06-10T12:02:23.563Z,49.73
2023-06-10T12:04:50.428Z,50.28
2023-06-10T12:07:25.672Z,48.40
2023-06-10T12:10:12.059Z,45.09
2023-06-10T12:12:48.488Z,42.44
2023-06-10T12:15:24.963Z,41.29
2023-06-10T12:17:52.008Z,40.37
2023-06-10T12:20:34.620Z,39.74
2023-06-10T12:23:02.473Z,38.88
2023-06-10T12:25:29.831Z,38.11
2023-06-10T12:27:58.975Z,37.53
2023-06-10T12:30:28.036Z,37.16
2023-06-10T12:32:56.239Z,36.97
2023-06-10T12:35:25.696Z,36.90
2023-06-10T12:37:58.011Z,37.01
2023-06-10T12:40:29.383Z,37.10
2023-06-10T12:42:56.690Z,36.92
2023-06-10T12:45:33.420Z,36.82
2023-06-10T12:48:10.965Z,36.97
2023-06-10T12:50:41.729Z,36.82
2023-06-10T12:53:09.016Z,36.56
2023-06-10T12:55:36.064Z,36.28
2023-06-10T12:58:05.094Z,36.08
2023-06-10T13:00:32.011Z,35.80
2023-06-10T13:03:01.304Z,35.73
2023-06-10T13:05:28.236Z,35.65
2023-06-10T13:07:55.180Z,35.33
2023-06-10T13:10:25.093Z,35.13
2023-06-10T13:12:52.678Z,35.04
2023-06-10T13:15:19.334Z,34.97
2023-06-10T13:17:50.189Z,35.08
2023-06-10T13:20:17.948Z,35.30
2023-06-10T13:22:45.069Z,35.63
2023-06-10T13:25:12.484Z,35.85
2023-06-10T13:27:40.172Z,35.80
2023-06-10T13:30:07.692Z,35.36
2023-06-10T13:32:34.356Z,34.84
2023-06-10T13:35:06.191Z,34.45
2023-06-10T13:37:34.697Z,34.12
2023-06-10T13:40:02.170Z,33.83
2023-06-10T13:42:30.216Z,33.56
2023-06-10T13:44:57.794Z,33.45
2023-06-10T13:47:25.597Z,33.65
2023-06-10T13:49:52.368Z,33.82
2023-06-10T13:52:19.122Z,33.94
2023-06-10T13:54:45.969Z,33.99
2023-06-10T13:57:12.885Z,34.07
2023-06-10T13:59:39.672Z,34.18
2023-06-10T14:02:06.429Z,34.31
2023-06-10T14:04:34.116Z,34.44
2023-06-10T14:07:02.754Z,34.63
2023-06-10T14:09:29.894Z,34.82
2023-06-10T14:11:56.602Z,35.23
2023-06-10T14:14:23.985Z,35.44
2023-06-10T14:16:51.074Z,35.50
2023-06-10T14:19:18.365Z,35.40
2023-06-10T14:21:45.110Z,35.15
2023-06-10T14:24:11.951Z,34.56
2023-06-10T14:26:40.133Z,34.29
2023-06-10T14:29:08.576Z,34.27
2023-06-10T14:31:35.658Z,34.25
2023-06-10T14:34:02.559Z,34.20
2023-06-10T14:36:29.252Z,34.27
2023-06-10T14:38:56.119Z,34.32
2023-06-10T14:41:23.533Z,34.25
2023-06-10T14:43:50.412Z,34.26
2023-06-10T14:46:17.229Z,34.14
2023-06-10T14:48:44.050Z,33.99
2023-06-10T14:51:10.768Z,33.88
2023-06-10T14:53:37.433Z,33.79
2023-06-10T14:56:04.158Z,33.78
2023-06-10T14:58:30.926Z,33.91
2023-06-10T15:00:57.783Z,33.88
2023-06-10T15:03:24.464Z,33.78
2023-06-10T15:05:51.175Z,33.74
2023-06-10T15:08:17.958Z,33.72
2023-06-10T15:10:44.741Z,33.70
2023-06-10T15:13:11.495Z,33.69
2023-06-10T15:15:38.138Z,33.70
2023-06-10T15:18:04.896Z,33.71
2023-06-10T15:20:31.749Z,33.65
2023-06-10T15:22:58.744Z,33.59
2023-06-10T15:25:31.204Z,33.52
2023-06-10T15:27:59.205Z,33.47
2023-06-10T15:30:26.085Z,33.42
2023-06-10T15:32:53.123Z,33.50
2023-06-10T15:35:20.115Z,33.63
2023-06-10T15:37:46.785Z,33.82
2023-06-10T15:40:13.438Z,33.97
2023-06-10T15:42:40.245Z,34.05
2023-06-10T15:45:07.214Z,34.10
2023-06-10T15:47:34.053Z,33.99
2023-06-10T15:50:01.933Z,33.82
2023-06-10T15:52:28.725Z,33.72
2023-06-10T15:54:55.416Z,33.58
2023-06-10T15:57:24.897Z,33.51
2023-06-10T15:59:53.861Z,33.51
2023-06-10T16:02:20.625Z,33.62
2023-06-10T16:04:47.259Z,33.75
2023-06-10T16:07:14.032Z,33.68
2023-06-10T16:09:40.589Z,33.50
2023-06-10T16:12:08.638Z,33.36
2023-06-10T16:14:35.314Z,33.20
2023-06-10T16:17:02.121Z,33.02
2023-06-10T16:19:28.927Z,32.62
2023-06-10T16:21:56.529Z,32.27
2023-06-10T16:24:23.492Z,31.97
2023-06-10T16:26:50.236Z,31.74
2023-06-10T16:29:17.227Z,31.62
2023-06-10T16:31:43.957Z,31.54
2023-06-10T16:34:10.968Z,31.67
2023-06-10T16:36:37.719Z,31.87
2023-06-10T16:39:04.463Z,32.06
2023-06-10T16:41:31.294Z,32.21
2023-06-10T16:43:59.631Z,32.35
2023-06-10T16:46:29.970Z,32.44
2023-06-10T16:48:56.660Z,32.42
2023-06-10T16:51:23.278Z,32.41
2023-06-10T16:53:49.932Z,32.34
2023-06-10T16:56:16.537Z,32.21
2023-06-10T16:58:43.272Z,32.05
2023-06-10T17:01:13.039Z,31.89
2023-06-10T17:03:39.772Z,31.81
2023-06-10T17:06:06.696Z,31.78
2023-06-10T17:08:33.666Z,31.73
2023-06-10T17:11:00.357Z,31.64
2023-06-10T17:13:28.034Z,31.54
2023-06-10T17:15:55.117Z,31.46
2023-06-10T17:18:21.832Z,31.46
2023-06-10T17:20:48.706Z,31.53
2023-06-10T17:23:15.256Z,31.54
2023-06-10T17:25:41.848Z,31.50
2023-06-10T17:28:08.618Z,31.47
2023-06-10T17:30:35.222Z,31.47
2023-06-10T17:33:01.979Z,31.41
2023-06-10T17:35:28.805Z,31.27
2023-06-10T17:37:55.406Z,31.19
2023-06-10T17:40:22.111Z,31.15
2023-06-10T17:42:48.762Z,31.11
2023-06-10T17:45:15.421Z,31.09
2023-06-10T17:47:42.125Z,31.06
2023-06-10T17:50:09.194Z,31.01
2023-06-10T17:52:36.058Z,30.98
2023-06-10T17:55:03.706Z,30.98
2023-06-10T17:57:32.507Z,31.02
2023-06-10T17:59:59.659Z,31.05
2023-06-10T18:02:26.565Z,31.02
2023-06-10T18:04:53.345Z,30.91
2023-06-10T18:07:20.188Z,30.80
2023-06-10T18:09:46.828Z,30.70
2023-06-10T18:12:13.453Z,30.60
2023-06-10T18:14:40.385Z,30.51
2023-06-10T18:17:06.907Z,30.40
2023-06-10T18:19:33.645Z,30.27
2023-06-10T18:22:00.350Z,30.17
2023-06-10T18:24:27.237Z,30.04
2023-06-10T18:26:53.943Z,29.89
2023-06-10T18:29:23.275Z,29.81
2023-06-10T18:31:50.050Z,29.69
2023-06-10T18:34:17.392Z,29.59
2023-06-10T18:36:44.167Z,29.51
2023-06-10T18:39:11.078Z,29.43
2023-06-10T18:41:38.861Z,29.34
2023-06-10T18:44:05.536Z,29.28
2023-06-10T18:46:32.352Z,29.26
2023-06-10T18:48:59.262Z,29.21
2023-06-10T18:51:25.930Z,29.17
2023-06-10T18:53:52.571Z,29.12
2023-06-10T18:56:19.108Z,29.08
2023-06-10T18:58:47.804Z,29.03
2023-06-10T19:01:14.531Z,28.93
2023-06-10T19:03:41.432Z,28.85
2023-06-10T19:06:08.282Z,28.83
2023-06-10T19:08:34.937Z,28.77
2023-06-10T19:11:01.524Z,28.70
2023-06-10T19:13:28.693Z,28.65
2023-06-10T19:15:55.418Z,28.58
2023-06-10T19:18:21.959Z,28.56
2023-06-10T19:20:48.713Z,28.54
2023-06-10T19:23:15.527Z,28.53
2023-06-10T19:25:42.030Z,28.50
2023-06-10T19:28:09.715Z,28.45
2023-06-10T19:30:36.686Z,28.40
2023-06-10T19:33:03.526Z,28.36
2023-06-10T19:35:30.452Z,28.32
2023-06-10T19:37:57.600Z,28.30
2023-06-10T19:40:24.590Z,28.24
2023-06-10T19:42:52.138Z,28.18
2023-06-10T19:45:19.349Z,28.13
2023-06-10T19:47:46.639Z,28.09
2023-06-10T19:50:13.882Z,28.07
2023-06-10T19:52:40.522Z,28.03
2023-06-10T19:55:07.550Z,27.99
2023-06-10T19:57:34.402Z,27.96
2023-06-10T20:00:01.024Z,27.93
2023-06-10T20:02:27.769Z,27.93
2023-06-10T20:04:54.413Z,27.89
2023-06-10T20:07:21.149Z,27.85
2023-06-10T20:09:47.821Z,27.81
2023-06-10T20:12:14.549Z,27.80
2023-06-10T20:14:41.487Z,27.76
2023-06-10T20:17:08.108Z,27.71
2023-06-10T20:19:38.646Z,27.66
2023-06-10T20:22:05.358Z,27.57
2023-06-10T20:24:32.395Z,27.50
2023-06-10T20:26:59.421Z,27.45
2023-06-10T20:29:29.005Z,27.42
2023-06-10T20:31:55.871Z,27.37
2023-06-10T20:34:22.964Z,27.33
2023-06-10T20:36:49.825Z,27.29
2023-06-10T20:39:17.097Z,27.22
2023-06-10T20:41:43.750Z,27.17
2023-06-10T20:44:10.515Z,27.15
2023-06-10T20:46:37.845Z,27.17
2023-06-10T20:49:04.692Z,27.19
2023-06-10T20:51:31.420Z,27.24
2023-06-10T20:53:58.111Z,27.22
2023-06-10T20:56:24.830Z,27.23
2023-06-10T20:58:51.551Z,27.22
2023-06-10T21:01:18.384Z,27.22
2023-06-10T21:03:45.122Z,27.26
2023-06-10T21:06:12.121Z,27.30
2023-06-10T21:08:38.895Z,27.26
2023-06-10T21:11:05.918Z,27.21
2023-06-10T21:13:32.687Z,27.17
2023-06-10T21:15:59.387Z,27.17
2023-06-10T21:18:28.251Z,27.16
2023-06-10T21:20:54.845Z,27.14
2023-06-10T21:23:21.517Z,27.09
2023-06-10T21:25:48.235Z,27.01
2023-06-10T21:28:15.778Z,26.93
2023-06-10T21:30:42.671Z,26.89
2023-06-10T21:33:09.323Z,26.86
2023-06-10T21:35:36.019Z,26.80
2023-06-10T21:38:02.667Z,26.76
2023-06-10T21:40:29.493Z,26.72
2023-06-10T21:42:56.146Z,26.66
2023-06-10T21:45:22.815Z,26.59
2023-06-10T21:47:49.565Z,26.57
2023-06-10T21:50:16.214Z,26.55
2023-06-10T21:52:42.855Z,26.52
2023-06-10T21:55:10.082Z,26.47
2023-06-10T21:57:36.982Z,26.41
2023-06-10T22:00:11.898Z,26.34
2023-06-10T22:02:42.330Z,26.32
2023-06-10T22:05:09.842Z,26.34
2023-06-10T22:07:37.390Z,26.38
2023-06-10T22:10:04.690Z,26.40
2023-06-10T22:12:31.565Z,26.43
2023-06-10T22:14:58.657Z,26.42
2023-06-10T22:17:25.455Z,26.42
2023-06-10T22:19:52.191Z,26.43
2023-06-10T22:22:18.749Z,26.43
2023-06-10T22:24:48.714Z,26.41
2023-06-10T22:27:15.363Z,26.40
2023-06-10T22:29:41.947Z,26.38
2023-06-10T22:32:08.809Z,26.39
2023-06-10T22:34:35.434Z,26.36
2023-06-10T22:37:02.062Z,26.37
2023-06-10T22:39:28.627Z,26.35
2023-06-10T22:41:55.665Z,26.29
2023-06-10T22:44:22.259Z,26.29
2023-06-10T22:46:49.946Z,26.30
2023-06-10T22:49:16.597Z,26.27
2023-06-10T22:51:48.488Z,26.19
2023-06-10T22:54:15.343Z,26.08
2023-06-10T22:56:42.084Z,26.02
2023-06-10T22:59:08.800Z,25.98
2023-06-10T23:01:35.661Z,25.93
2023-06-10T23:04:03.036Z,25.89
2023-06-10T23:06:29.664Z,25.85
2023-06-10T23:08:56.414Z,25.83
2023-06-10T23:11:24.258Z,25.81
2023-06-10T23:13:51.845Z,25.80
2023-06-10T23:16:18.461Z,25.79
2023-06-10T23:18:45.758Z,25.78
2023-06-10T23:21:12.409Z,25.74
2023-06-10T23:23:39.320Z,25.73
2023-06-10T23:26:06.207Z,25.69
2023-06-10T23:28:33.308Z,25.67
2023-06-10T23:30:59.984Z,25.63
2023-06-10T23:33:28.739Z,25.57
2023-06-10T23:35:55.738Z,25.58
2023-06-10T23:38:22.529Z,25.61
2023-06-10T23:40:49.864Z,25.60
2023-06-10T23:43:16.708Z,25.61
2023-06-10T23:45:43.703Z,25.59
2023-06-10T23:48:10.782Z,25.59
2023-06-10T23:50:38.186Z,25.58
2023-06-10T23:53:06.907Z,25.59
2023-06-10T23:55:34.120Z,25.58
2023-06-10T23:58:01.354Z,25.55
